Time;durP1;ratioP1;P1;durP2;ratioP2;P2;SDS_P1;SDS_P2;PMS_P1;PMS_P2;Temp;Humidity;BMP_temperature;BMP_pressure;BME280_temperature;BME280_humidity;BME280_pressure;Samples;Min_cycle;Max_cycle;Signal;HPM_P1;HPM_P2
2022/10/20 00:01:04;;;;;;;;;;;23.30;99.90;;;;;;5094502;28;20261;-67
2022/10/20 00:03:31;;;;;;;;;;;23.70;99.90;;;;;;5094691;28;19916;-70
2022/10/20 00:06:26;;;;;;;;;;;23.90;99.90;;;;;;5094868;28;19915;-66
2022/10/20 00:08:54;;;;;;;;;;;24.00;99.90;;;;;;5059314;28;19915;-66
2022/10/20 00:11:21;;;;;;;;;;;24.20;99.90;;;;;;5094307;28;19997;-67
2022/10/20 00:13:49;;;;;;;;;;;24.20;99.90;;;;;;5094458;28;20037;-68
2022/10/20 00:16:16;;;;;;;;;;;23.90;99.90;;;;;;5094510;28;19919;-67
2022/10/20 00:18:43;;;;;;;;;;;23.90;99.90;;;;;;5094129;28;19988;-66
2022/10/20 00:21:12;;;;;;;;;;;23.90;99.90;;;;;;5094558;28;20393;-67
2022/10/20 00:23:39;;;;;;;;;;;23.80;99.90;;;;;;5093849;28;19923;-68
2022/10/20 00:26:12;;;;;;;;;;;23.80;99.90;;;;;;5094431;28;19943;-67
2022/10/20 00:28:38;;;;;;;;;;;23.80;99.90;;;;;;5094597;28;19947;-69
2022/10/20 00:31:06;;;;;;;;;;;23.80;99.90;;;;;;5093884;28;20003;-69
2022/10/20 00:33:32;;;;;;;;;;;23.90;99.90;;;;;;5093844;28;19916;-69
2022/10/20 00:35:59;;;;;;;;;;;24.00;99.90;;;;;;5093863;28;19908;-67
2022/10/20 00:38:26;;;;;;;;;;;24.10;99.90;;;;;;5093892;28;20007;-70
2022/10/20 00:40:53;;;;;;;;;;;24.40;99.90;;;;;;5093999;28;20008;-67
2022/10/20 00:43:20;;;;;;;;;;;24.60;99.90;;;;;;5093882;28;19920;-67
2022/10/20 00:45:52;;;;;;;;;;;24.60;99.90;;;;;;5093631;28;19979;-71
2022/10/20 00:48:20;;;;;;;;;;;24.40;99.90;;;;;;5093723;28;19916;-67
2022/10/20 00:50:49;;;;;;;;;;;24.40;99.90;;;;;;5105203;22;20380;-73
2022/10/20 00:53:16;;;;;;;;;;;24.60;99.90;;;;;;5093418;28;20027;-71
2022/10/20 00:55:45;;;;;;;;;;;24.70;99.90;;;;;;5094146;28;20383;-70
2022/10/20 00:58:13;;;;;;;;;;;24.80;99.90;;;;;;5093755;28;19961;-71
2022/10/20 01:00:40;;;;;;;;;;;24.90;99.90;;;;;;5092351;28;20336;-71
2022/10/20 01:03:07;;;;;;;;;;;25.00;99.90;;;;;;5091779;28;20147;-70
2022/10/20 01:05:34;;;;;;;;;;;25.30;99.90;;;;;;5091607;28;19912;-70
2022/10/20 01:08:00;;;;;;;;;;;25.40;99.90;;;;;;5092107;28;19908;-70
2022/10/20 01:10:31;;;;;;;;;;;25.80;99.90;;;;;;5092302;28;19908;-72
2022/10/20 01:13:13;;;;;;;;;;;26.10;99.90;;;;;;5090906;28;20516;-71
2022/10/20 01:15:54;;;;;;;;;;;26.50;99.90;;;;;;5092524;28;19908;-70
2022/10/20 01:18:50;;;;;;;;;;;26.90;99.90;;;;;;5091948;28;19932;-71
2022/10/20 01:21:16;;;;;;;;;;;27.40;99.90;;;;;;5038447;28;19918;-70
2022/10/20 01:23:46;;;;;;;;;;;27.70;99.90;;;;;;5094141;28;20339;-70
2022/10/20 01:26:22;;;;;;;;;;;28.10;99.90;;;;;;5095549;28;19908;-69
2022/10/20 01:28:56;;;;;;;;;;;28.20;99.90;;;;;;5095802;28;19908;-70
2022/10/20 01:31:41;;;;;;;;;;;28.20;99.60;;;;;;5074997;28;19931;-70
2022/10/20 01:34:22;;;;;;;;;;;28.20;99.40;;;;;;5094603;28;19951;-69
2022/10/20 01:36:54;;;;;;;;;;;28.00;98.30;;;;;;5093625;28;20300;-69
2022/10/20 01:39:24;;;;;;;;;;;27.40;98.80;;;;;;5075208;28;19938;-69
2022/10/20 01:42:05;;;;;;;;;;;27.10;99.40;;;;;;5091609;28;19981;-70
2022/10/20 01:44:33;;;;;;;;;;;27.10;99.30;;;;;;5091069;28;19961;-70
2022/10/20 01:47:00;;;;;;;;;;;27.00;99.40;;;;;;5092169;28;19908;-70
2022/10/20 01:49:27;;;;;;;;;;;27.00;99.10;;;;;;5091864;28;19908;-70
2022/10/20 01:51:54;;;;;;;;;;;26.70;99.80;;;;;;5075687;28;19916;-70
2022/10/20 01:54:21;;;;;;;;;;;26.70;99.80;;;;;;5092094;28;19908;-70
2022/10/20 01:56:54;;;;;;;;;;;26.70;99.20;;;;;;5092151;28;19908;-70
2022/10/20 01:59:31;;;;;;;;;;;26.50;99.70;;;;;;5092047;28;19961;-70
2022/10/20 02:01:58;;;;;;;;;;;26.30;99.90;;;;;;5094132;28;20280;-70
2022/10/20 02:04:34;;;;;;;;;;;26.30;99.90;;;;;;5091906;28;19908;-68
2022/10/20 02:07:08;;;;;;;;;;;26.30;99.50;;;;;;5091648;28;20574;-70
2022/10/20 02:09:40;;;;;;;;;;;25.90;99.60;;;;;;5092219;28;19909;-70
2022/10/20 02:12:09;;;;;;;;;;;25.40;99.90;;;;;;5093044;28;19908;-70
2022/10/20 02:14:36;;;;;;;;;;;25.10;99.90;;;;;;5092346;28;20034;-69
2022/10/20 02:17:06;;;;;;;;;;;24.90;99.90;;;;;;5092679;28;20376;-69
2022/10/20 02:19:34;;;;;;;;;;;24.50;99.90;;;;;;5092820;28;20356;-69
2022/10/20 02:22:01;;;;;;;;;;;24.10;99.90;;;;;;5092963;28;19919;-69
2022/10/20 02:24:31;;;;;;;;;;;23.80;99.90;;;;;;5097366;28;19919;-68
2022/10/20 02:27:00;;;;;;;;;;;23.40;99.90;;;;;;5097619;28;19930;-68
2022/10/20 02:29:33;;;;;;;;;;;23.10;99.90;;;;;;5097642;28;19908;-68
2022/10/20 02:32:00;;;;;;;;;;;22.90;99.90;;;;;;5097311;28;19908;-69
2022/10/20 02:34:28;;;;;;;;;;;22.70;99.90;;;;;;5097685;28;19912;-68
2022/10/20 02:36:57;;;;;;;;;;;22.70;99.90;;;;;;5078472;28;20330;-69
2022/10/20 02:39:24;;;;;;;;;;;22.60;99.90;;;;;;5097526;28;19951;-68
2022/10/20 02:41:51;;;;;;;;;;;22.70;99.90;;;;;;5098459;28;19919;-70
2022/10/20 02:44:19;;;;;;;;;;;22.80;99.90;;;;;;5099599;28;19908;-68
2022/10/20 02:46:45;;;;;;;;;;;22.80;99.90;;;;;;5097379;28;20279;-69
2022/10/20 02:49:12;;;;;;;;;;;22.70;99.90;;;;;;5098206;28;19915;-69
2022/10/20 02:51:38;;;;;;;;;;;22.80;99.90;;;;;;5078003;28;19920;-69
2022/10/20 02:54:05;;;;;;;;;;;22.80;99.90;;;;;;5098769;28;19908;-70
2022/10/20 02:56:32;;;;;;;;;;;22.80;99.90;;;;;;5096416;28;19973;-68
2022/10/20 02:58:58;;;;;;;;;;;22.70;99.90;;;;;;5096630;28;19934;-68
2022/10/20 03:01:25;;;;;;;;;;;22.70;99.90;;;;;;5095621;28;19908;-69
2022/10/20 03:03:57;;;;;;;;;;;22.50;99.90;;;;;;5095963;28;19912;-70
2022/10/20 03:06:24;;;;;;;;;;;22.40;99.90;;;;;;5095946;28;19908;-68
2022/10/20 03:08:50;;;;;;;;;;;22.40;99.90;;;;;;5095998;28;19912;-69
2022/10/20 03:11:17;;;;;;;;;;;22.30;99.90;;;;;;5095968;28;19908;-68
2022/10/20 03:13:43;;;;;;;;;;;22.20;99.90;;;;;;5095936;28;19916;-68
2022/10/20 03:16:10;;;;;;;;;;;22.20;99.90;;;;;;5095903;28;19915;-68
2022/10/20 03:18:37;;;;;;;;;;;22.30;99.90;;;;;;5095913;28;20360;-68
2022/10/20 03:21:03;;;;;;;;;;;22.30;99.90;;;;;;5095700;28;19915;-69
2022/10/20 03:23:30;;;;;;;;;;;22.20;99.90;;;;;;5095573;28;19916;-69
2022/10/20 03:26:06;;;;;;;;;;;22.30;99.90;;;;;;5095580;28;20392;-68
2022/10/20 03:28:33;;;;;;;;;;;22.40;99.90;;;;;;5095499;28;19997;-68
2022/10/20 03:31:00;;;;;;;;;;;22.50;99.90;;;;;;5095291;28;19909;-68
2022/10/20 03:33:28;;;;;;;;;;;22.60;99.90;;;;;;5095590;28;19955;-68
2022/10/20 03:35:54;;;;;;;;;;;22.60;99.90;;;;;;5094676;28;19912;-69
2022/10/20 03:38:22;;;;;;;;;;;22.40;99.90;;;;;;5095446;28;20305;-70
2022/10/20 03:40:48;;;;;;;;;;;22.40;99.90;;;;;;5096503;28;19912;-68
2022/10/20 03:43:15;;;;;;;;;;;22.50;99.90;;;;;;5097428;28;20323;-68
2022/10/20 03:45:43;;;;;;;;;;;22.50;99.90;;;;;;5097276;28;20007;-69
2022/10/20 03:48:11;;;;;;;;;;;22.60;99.90;;;;;;5102966;28;20280;-68
2022/10/20 03:50:38;;;;;;;;;;;22.60;99.90;;;;;;5096841;28;19920;-70
2022/10/20 03:53:05;;;;;;;;;;;22.70;99.90;;;;;;5096220;28;20320;-70
2022/10/20 03:55:31;;;;;;;;;;;22.60;99.90;;;;;;5097727;28;19908;-70
2022/10/20 03:57:58;;;;;;;;;;;22.80;99.90;;;;;;5096789;28;19908;-70
2022/10/20 04:00:24;;;;;;;;;;;22.80;99.90;;;;;;5095531;28;19905;-70
2022/10/20 04:02:52;;;;;;;;;;;23.00;99.90;;;;;;5095254;28;19923;-69
2022/10/20 04:05:19;;;;;;;;;;;23.10;99.90;;;;;;5076471;28;19957;-70
2022/10/20 04:07:46;;;;;;;;;;;23.30;99.90;;;;;;5095508;28;19953;-70
2022/10/20 04:10:13;;;;;;;;;;;23.40;99.90;;;;;;5095408;28;19954;-69
2022/10/20 04:12:40;;;;;;;;;;;23.20;99.90;;;;;;5095345;28;19908;-69
2022/10/20 04:15:07;;;;;;;;;;;23.00;99.90;;;;;;5095812;28;19908;-69
2022/10/20 04:17:35;;;;;;;;;;;23.00;99.90;;;;;;5095220;28;19908;-69
2022/10/20 04:20:02;;;;;;;;;;;22.90;99.90;;;;;;5093872;28;20396;-69
2022/10/20 04:22:29;;;;;;;;;;;22.90;99.90;;;;;;5092499;28;19974;-70
2022/10/20 04:24:56;;;;;;;;;;;22.80;99.90;;;;;;5093015;28;20082;-71
2022/10/20 04:27:23;;;;;;;;;;;22.70;99.90;;;;;;5093786;28;20356;-69
2022/10/20 04:29:49;;;;;;;;;;;22.60;99.90;;;;;;5075762;28;19919;-69
2022/10/20 04:32:16;;;;;;;;;;;22.60;99.90;;;;;;5093837;28;19942;-68
2022/10/20 04:34:43;;;;;;;;;;;22.60;99.90;;;;;;5093959;28;19908;-69
2022/10/20 04:37:09;;;;;;;;;;;22.60;99.90;;;;;;5094002;28;20610;-71
2022/10/20 04:39:36;;;;;;;;;;;22.70;99.90;;;;;;5091081;28;19919;-68
2022/10/20 04:42:03;;;;;;;;;;;22.80;99.90;;;;;;5083059;28;19919;-68
2022/10/20 04:44:29;;;;;;;;;;;22.70;99.90;;;;;;5081539;28;20296;-70
2022/10/20 04:46:56;;;;;;;;;;;22.70;99.90;;;;;;5080939;28;19916;-69
2022/10/20 04:49:22;;;;;;;;;;;22.70;99.90;;;;;;5080920;28;19912;-69
2022/10/20 04:51:49;;;;;;;;;;;22.70;99.90;;;;;;5082408;28;19916;-69
2022/10/20 04:54:16;;;;;;;;;;;22.60;99.90;;;;;;5082705;28;19909;-70
2022/10/20 04:56:42;;;;;;;;;;;22.60;99.90;;;;;;5080134;28;19916;-70
2022/10/20 04:59:09;;;;;;;;;;;22.60;99.90;;;;;;5081104;28;19962;-68
2022/10/20 05:01:35;;;;;;;;;;;22.70;99.90;;;;;;5082466;28;20373;-69
2022/10/20 05:04:02;;;;;;;;;;;22.80;99.90;;;;;;5082553;28;19955;-69
2022/10/20 05:06:30;;;;;;;;;;;22.90;99.90;;;;;;5080918;28;19962;-68
2022/10/20 05:09:01;;;;;;;;;;;23.10;99.90;;;;;;5082142;28;19912;-70
2022/10/20 05:11:28;;;;;;;;;;;23.30;99.90;;;;;;5082778;28;19912;-69
2022/10/20 05:13:55;;;;;;;;;;;23.50;99.90;;;;;;5081341;28;20011;-68
2022/10/20 05:16:22;;;;;;;;;;;23.60;99.90;;;;;;5081603;28;20423;-71
2022/10/20 05:18:51;;;;;;;;;;;23.60;99.90;;;;;;5082381;28;20323;-69
2022/10/20 05:21:19;;;;;;;;;;;23.80;99.90;;;;;;5080905;28;19913;-69
2022/10/20 05:23:46;;;;;;;;;;;23.80;99.90;;;;;;5079904;28;19962;-70
2022/10/20 05:26:14;;;;;;;;;;;23.60;99.90;;;;;;5083546;28;19934;-68
2022/10/20 05:28:48;;;;;;;;;;;23.50;99.90;;;;;;5082426;28;19938;-69
2022/10/20 05:31:16;;;;;;;;;;;23.20;99.90;;;;;;5079968;28;19908;-69
2022/10/20 05:33:46;;;;;;;;;;;23.10;99.90;;;;;;5084827;28;19908;-69
2022/10/20 05:36:14;;;;;;;;;;;23.00;99.90;;;;;;5091984;28;20267;-69
2022/10/20 05:38:41;;;;;;;;;;;22.90;99.90;;;;;;5081586;28;19912;-70
2022/10/20 05:41:07;;;;;;;;;;;22.80;99.90;;;;;;5088238;28;19947;-71
2022/10/20 05:43:34;;;;;;;;;;;22.70;99.90;;;;;;5087767;28;19916;-71
2022/10/20 05:46:01;;;;;;;;;;;22.50;99.90;;;;;;5090572;28;19908;-69
2022/10/20 05:48:28;;;;;;;;;;;22.40;99.90;;;;;;5092795;28;19908;-70
2022/10/20 05:50:55;;;;;;;;;;;22.30;99.90;;;;;;5092349;28;19924;-71
2022/10/20 05:53:22;;;;;;;;;;;22.20;99.90;;;;;;5086336;28;19912;-70
2022/10/20 05:55:48;;;;;;;;;;;22.20;99.90;;;;;;5072142;28;19908;-69
2022/10/20 05:58:15;;;;;;;;;;;22.30;99.90;;;;;;5071786;28;20445;-70
2022/10/20 06:00:50;;;;;;;;;;;22.30;99.90;;;;;;5071791;28;19912;-70
2022/10/20 06:03:17;;;;;;;;;;;22.40;99.90;;;;;;5053901;28;19917;-71
2022/10/20 06:05:44;;;;;;;;;;;22.40;99.90;;;;;;5071857;28;19908;-70
2022/10/20 06:08:10;;;;;;;;;;;22.40;99.90;;;;;;5071970;28;20375;-69
2022/10/20 06:10:37;;;;;;;;;;;22.40;99.90;;;;;;5072824;28;20016;-70
2022/10/20 06:13:04;;;;;;;;;;;22.40;99.90;;;;;;5075258;28;19951;-70
2022/10/20 06:15:32;;;;;;;;;;;22.40;99.90;;;;;;5074451;28;19909;-70
2022/10/20 06:17:58;;;;;;;;;;;22.30;99.90;;;;;;5073038;28;19916;-69
2022/10/20 06:20:25;;;;;;;;;;;22.20;99.90;;;;;;5073488;28;19909;-71
2022/10/20 06:22:52;;;;;;;;;;;22.20;99.90;;;;;;5072977;28;19966;-71
2022/10/20 06:25:18;;;;;;;;;;;22.20;99.90;;;;;;5074428;28;20006;-69
2022/10/20 06:27:45;;;;;;;;;;;22.10;99.90;;;;;;5072717;28;19909;-69
2022/10/20 06:30:12;;;;;;;;;;;22.00;99.90;;;;;;5072938;28;19909;-69
2022/10/20 06:32:38;;;;;;;;;;;21.90;99.90;;;;;;5071593;28;19909;-69
2022/10/20 06:35:05;;;;;;;;;;;21.80;99.90;;;;;;5072299;28;19914;-69
2022/10/20 06:37:32;;;;;;;;;;;21.80;99.90;;;;;;5087792;28;19912;-71
2022/10/20 06:39:59;;;;;;;;;;;21.80;99.90;;;;;;5093557;28;20326;-71
2022/10/20 06:42:27;;;;;;;;;;;21.90;99.90;;;;;;5092795;28;19923;-72
2022/10/20 06:44:54;;;;;;;;;;;21.80;99.90;;;;;;5091732;28;19919;-70
2022/10/20 06:47:20;;;;;;;;;;;21.70;99.90;;;;;;5091344;28;19912;-69
2022/10/20 06:49:50;;;;;;;;;;;21.80;99.90;;;;;;5090880;28;19961;-70
2022/10/20 06:52:17;;;;;;;;;;;21.70;99.90;;;;;;5073382;28;19947;-71
2022/10/20 06:54:43;;;;;;;;;;;21.70;99.90;;;;;;5091161;28;19915;-70
2022/10/20 06:57:10;;;;;;;;;;;21.60;99.90;;;;;;5091829;28;19908;-71
2022/10/20 06:59:37;;;;;;;;;;;21.50;99.90;;;;;;5092623;28;19908;-71
2022/10/20 07:02:04;;;;;;;;;;;21.50;99.90;;;;;;5091744;28;19912;-71
2022/10/20 07:04:30;;;;;;;;;;;21.40;99.90;;;;;;5091661;28;19916;-71
2022/10/20 07:06:58;;;;;;;;;;;21.40;99.90;;;;;;5092044;28;19908;-71
2022/10/20 07:09:24;;;;;;;;;;;21.30;99.90;;;;;;5091824;28;19970;-70
2022/10/20 07:11:52;;;;;;;;;;;21.30;99.90;;;;;;5094662;28;19970;-69
2022/10/20 07:14:19;;;;;;;;;;;21.30;99.90;;;;;;5069796;28;19936;-71
2022/10/20 07:16:45;;;;;;;;;;;21.30;99.90;;;;;;5085671;28;19908;-70
2022/10/20 07:19:12;;;;;;;;;;;21.30;99.90;;;;;;5094932;28;20284;-69
2022/10/20 07:21:39;;;;;;;;;;;21.30;99.90;;;;;;5094585;28;21011;-73
2022/10/20 07:24:06;;;;;;;;;;;21.20;99.90;;;;;;5076575;28;19935;-69
2022/10/20 07:26:34;;;;;;;;;;;21.10;99.90;;;;;;5095597;28;19908;-70
2022/10/20 07:29:02;;;;;;;;;;;21.10;99.90;;;;;;5094546;28;19953;-72
2022/10/20 07:31:34;;;;;;;;;;;21.10;99.90;;;;;;5095017;28;19908;-70
2022/10/20 07:34:02;;;;;;;;;;;21.10;99.90;;;;;;5096246;28;19934;-69
2022/10/20 07:36:30;;;;;;;;;;;21.00;99.90;;;;;;5094930;28;19915;-70
2022/10/20 07:38:58;;;;;;;;;;;21.00;99.90;;;;;;5094817;28;19908;-71
2022/10/20 07:41:25;;;;;;;;;;;21.00;99.90;;;;;;5094965;28;19908;-71
2022/10/20 07:43:54;;;;;;;;;;;21.00;99.90;;;;;;5093938;28;19951;-72
2022/10/20 07:46:21;;;;;;;;;;;20.90;99.90;;;;;;5094774;28;19912;-72
2022/10/20 07:48:48;;;;;;;;;;;20.90;99.90;;;;;;5094637;28;19908;-72
2022/10/20 07:51:29;;;;;;;;;;;20.90;99.90;;;;;;5094813;28;19924;-72
2022/10/20 07:54:06;;;;;;;;;;;20.90;99.90;;;;;;5095025;28;19908;-72
2022/10/20 07:56:35;;;;;;;;;;;20.90;99.90;;;;;;5093832;28;19914;-72
2022/10/20 07:59:02;;;;;;;;;;;20.90;99.90;;;;;;5094795;28;20008;-72
2022/10/20 08:01:29;;;;;;;;;;;20.90;99.90;;;;;;5094437;28;19998;-72
2022/10/20 08:03:56;;;;;;;;;;;20.90;99.90;;;;;;5094838;28;19939;-72
2022/10/20 08:06:23;;;;;;;;;;;20.90;99.90;;;;;;5095107;28;20326;-71
2022/10/20 08:08:49;;;;;;;;;;;20.90;99.90;;;;;;5095066;28;19908;-71
2022/10/20 08:11:16;;;;;;;;;;;20.90;99.90;;;;;;5094638;28;20276;-71
2022/10/20 08:13:43;;;;;;;;;;;20.80;99.90;;;;;;5093800;28;19915;-71
2022/10/20 08:16:11;;;;;;;;;;;20.80;99.90;;;;;;5095542;28;19953;-72
2022/10/20 08:18:41;;;;;;;;;;;20.80;99.90;;;;;;5074938;28;21462;-71
2022/10/20 08:21:18;;;;;;;;;;;20.80;99.90;;;;;;5093695;28;20276;-70
2022/10/20 08:23:45;;;;;;;;;;;20.80;99.90;;;;;;5095351;28;19928;-69
2022/10/20 08:26:20;;;;;;;;;;;20.70;99.90;;;;;;5094908;28;20396;-71
2022/10/20 08:28:47;;;;;;;;;;;20.70;99.90;;;;;;5093811;28;20313;-71
2022/10/20 08:31:14;;;;;;;;;;;20.70;99.90;;;;;;5094135;28;19908;-70
2022/10/20 08:33:41;;;;;;;;;;;20.70;99.90;;;;;;5093519;28;19922;-71
2022/10/20 08:36:08;;;;;;;;;;;20.70;99.90;;;;;;5093256;28;19908;-69
2022/10/20 08:38:35;;;;;;;;;;;20.60;99.90;;;;;;5093473;28;19952;-71
2022/10/20 08:41:04;;;;;;;;;;;20.60;99.90;;;;;;5094613;28;19908;-71
2022/10/20 08:43:31;;;;;;;;;;;20.60;99.90;;;;;;5094178;28;19916;-71
2022/10/20 08:45:58;;;;;;;;;;;20.60;99.90;;;;;;5092312;28;20016;-71
2022/10/20 08:48:27;;;;;;;;;;;20.60;99.90;;;;;;5064321;28;20287;-70
2022/10/20 08:50:54;;;;;;;;;;;20.60;99.90;;;;;;5075858;28;19925;-70
2022/10/20 08:53:23;;;;;;;;;;;20.60;99.90;;;;;;5088736;28;20325;-70
2022/10/20 08:55:50;;;;;;;;;;;20.50;99.90;;;;;;5093192;28;19912;-71
2022/10/20 08:58:21;;;;;;;;;;;20.50;99.90;;;;;;5086861;28;19908;-71
2022/10/20 09:00:50;;;;;;;;;;;20.50;99.90;;;;;;5089606;28;20316;-71
2022/10/20 09:03:21;;;;;;;;;;;20.50;99.90;;;;;;5092449;28;19916;-71
2022/10/20 09:05:53;;;;;;;;;;;20.50;99.90;;;;;;5092581;28;19918;-72
2022/10/20 09:08:21;;;;;;;;;;;20.50;99.90;;;;;;5091521;28;19962;-69
2022/10/20 09:10:48;;;;;;;;;;;20.50;99.90;;;;;;5080027;28;20011;-69
2022/10/20 09:13:28;;;;;;;;;;;20.50;99.90;;;;;;5076435;28;19908;-70
2022/10/20 09:15:58;;;;;;;;;;;20.50;99.90;;;;;;5092708;28;19912;-69
2022/10/20 09:18:25;;;;;;;;;;;20.50;99.90;;;;;;5092698;28;19912;-71
2022/10/20 09:20:53;;;;;;;;;;;20.50;99.90;;;;;;5092284;28;19919;-70
2022/10/20 09:23:22;;;;;;;;;;;20.50;99.90;;;;;;5091914;28;19920;-71
2022/10/20 09:25:49;;;;;;;;;;;20.50;99.90;;;;;;5092371;28;19916;-70
2022/10/20 09:28:20;;;;;;;;;;;20.50;99.90;;;;;;5092305;28;19908;-71
2022/10/20 09:30:47;;;;;;;;;;;20.50;99.90;;;;;;5081146;28;19916;-71
2022/10/20 09:33:22;;;;;;;;;;;20.50;99.90;;;;;;5091619;28;20027;-71
2022/10/20 09:35:50;;;;;;;;;;;20.50;99.90;;;;;;5088086;28;20006;-70
2022/10/20 09:38:18;;;;;;;;;;;20.50;99.90;;;;;;5092759;28;19912;-70
2022/10/20 09:41:05;;;;;;;;;;;20.50;99.90;;;;;;5079317;28;19909;-70
2022/10/20 09:43:32;;;;;;;;;;;20.40;99.90;;;;;;5082412;28;19971;-70
2022/10/20 09:46:03;;;;;;;;;;;20.40;99.90;;;;;;5081949;28;19912;-71
2022/10/20 09:48:35;;;;;;;;;;;20.40;99.90;;;;;;5092190;28;19965;-69
2022/10/20 09:51:02;;;;;;;;;;;20.50;99.90;;;;;;5086806;28;19921;-69
2022/10/20 09:53:46;;;;;;;;;;;20.50;99.90;;;;;;5079535;28;20365;-71
2022/10/20 09:56:22;;;;;;;;;;;20.50;99.90;;;;;;5072896;28;19921;-70
2022/10/20 09:58:48;;;;;;;;;;;20.50;99.90;;;;;;5088961;28;19920;-69
2022/10/20 10:01:17;;;;;;;;;;;20.50;99.90;;;;;;5094304;28;20352;-72
2022/10/20 10:03:50;;;;;;;;;;;20.50;99.90;;;;;;5094994;28;19916;-71
2022/10/20 10:06:26;;;;;;;;;;;20.40;99.90;;;;;;5092277;28;20177;-72
2022/10/20 10:08:53;;;;;;;;;;;20.40;99.90;;;;;;5093338;28;19944;-69
2022/10/20 10:11:21;;;;;;;;;;;20.40;99.90;;;;;;5093390;28;19915;-70
2022/10/20 10:13:50;;;;;;;;;;;20.40;99.90;;;;;;5092708;28;19915;-71
2022/10/20 10:16:19;;;;;;;;;;;20.30;99.90;;;;;;5094393;28;19958;-71
2022/10/20 10:19:05;;;;;;;;;;;20.30;99.90;;;;;;5092711;28;19908;-71
2022/10/20 10:21:46;;;;;;;;;;;20.30;99.90;;;;;;5082317;28;20417;-68
2022/10/20 10:24:42;;;;;;;;;;;20.30;99.90;;;;;;5092408;28;20079;-69
2022/10/20 10:27:20;;;;;;;;;;;20.30;99.90;;;;;;5071932;28;19958;-70
2022/10/20 10:29:47;;;;;;;;;;;20.30;99.90;;;;;;5093964;28;19908;-69
2022/10/20 10:32:31;;;;;;;;;;;20.20;99.90;;;;;;5084891;28;19975;-69
2022/10/20 10:35:27;;;;;;;;;;;20.20;99.90;;;;;;5072322;28;19959;-71
2022/10/20 10:37:54;;;;;;;;;;;20.10;99.90;;;;;;5051506;28;19932;-70
2022/10/20 10:40:26;;;;;;;;;;;20.10;99.90;;;;;;5071596;28;19917;-70
2022/10/20 10:43:13;;;;;;;;;;;20.10;99.90;;;;;;5075269;28;19986;-69
2022/10/20 10:45:40;;;;;;;;;;;20.10;99.90;;;;;;5078129;28;19909;-70
2022/10/20 10:48:24;;;;;;;;;;;20.00;99.90;;;;;;5076230;28;19909;-69
2022/10/20 10:51:02;;;;;;;;;;;20.00;99.90;;;;;;5075689;28;19921;-70
2022/10/20 10:53:46;;;;;;;;;;;19.90;99.90;;;;;;5075611;28;20046;-71
2022/10/20 10:56:13;;;;;;;;;;;19.90;99.90;;;;;;5076029;28;19916;-71
2022/10/20 10:58:39;;;;;;;;;;;19.90;99.90;;;;;;5075999;28;19916;-71
2022/10/20 11:01:16;;;;;;;;;;;19.90;99.90;;;;;;5075260;28;19908;-70
2022/10/20 11:04:01;;;;;;;;;;;19.80;99.90;;;;;;5075418;28;20353;-69
2022/10/20 11:06:46;;;;;;;;;;;19.90;99.90;;;;;;5075452;28;19908;-71
2022/10/20 11:09:18;;;;;;;;;;;19.90;99.90;;;;;;5075463;28;19909;-71
2022/10/20 11:11:52;;;;;;;;;;;19.90;99.90;;;;;;5074925;28;19934;-72
2022/10/20 11:14:19;;;;;;;;;;;19.90;99.90;;;;;;5075237;28;19908;-70
2022/10/20 11:16:54;;;;;;;;;;;19.90;99.90;;;;;;5057100;28;19916;-71
2022/10/20 11:19:39;;;;;;;;;;;19.90;99.90;;;;;;5075178;28;19916;-71
2022/10/20 11:22:17;;;;;;;;;;;19.90;99.90;;;;;;5074989;28;19918;-68
2022/10/20 11:24:55;;;;;;;;;;;19.80;99.90;;;;;;5074912;28;19965;-70
2022/10/20 11:27:24;;;;;;;;;;;19.80;99.90;;;;;;5075299;28;20415;-69
2022/10/20 11:29:51;;;;;;;;;;;19.70;99.90;;;;;;5075172;28;19913;-70
2022/10/20 11:32:25;;;;;;;;;;;19.70;99.90;;;;;;5075061;28;19931;-68
2022/10/20 11:34:56;;;;;;;;;;;19.60;99.90;;;;;;5075396;28;19913;-70
2022/10/20 11:37:43;;;;;;;;;;;19.50;99.90;;;;;;5075178;28;19912;-69
2022/10/20 11:40:10;;;;;;;;;;;19.60;99.90;;;;;;5074378;28;19944;-70
2022/10/20 11:42:39;;;;;;;;;;;19.50;99.90;;;;;;5074894;28;20369;-69
2022/10/20 11:45:26;;;;;;;;;;;19.50;99.90;;;;;;5074686;28;19919;-70
2022/10/20 11:48:11;;;;;;;;;;;19.60;99.90;;;;;;5073698;28;19970;-70
2022/10/20 11:50:38;;;;;;;;;;;19.50;99.90;;;;;;5081907;28;19920;-71
2022/10/20 11:53:14;;;;;;;;;;;19.40;99.90;;;;;;5094712;28;20002;-71
2022/10/20 11:55:42;;;;;;;;;;;19.50;99.90;;;;;;5093850;28;20466;-70
2022/10/20 11:58:27;;;;;;;;;;;19.40;99.90;;;;;;5094713;28;20269;-70
2022/10/20 12:01:02;;;;;;;;;;;19.40;99.90;;;;;;5094580;28;19960;-70
2022/10/20 12:03:29;;;;;;;;;;;19.50;99.90;;;;;;5094430;28;19924;-71
2022/10/20 12:05:55;;;;;;;;;;;19.50;99.90;;;;;;5094379;28;19915;-70
2022/10/20 12:08:40;;;;;;;;;;;19.40;99.90;;;;;;5094518;28;19912;-69
2022/10/20 12:11:07;;;;;;;;;;;19.30;99.90;;;;;;5076544;28;19908;-70
2022/10/20 12:13:51;;;;;;;;;;;19.30;99.90;;;;;;5094700;28;19908;-70
2022/10/20 12:16:36;;;;;;;;;;;19.20;99.90;;;;;;5094398;28;19908;-69
2022/10/20 12:19:13;;;;;;;;;;;19.30;99.90;;;;;;5094446;28;19908;-70
2022/10/20 12:21:59;;;;;;;;;;;19.30;99.90;;;;;;5094298;28;19913;-69
2022/10/20 12:24:39;;;;;;;;;;;19.40;99.90;;;;;;5093868;28;19916;-69
2022/10/20 12:27:08;;;;;;;;;;;19.40;99.90;;;;;;5093945;28;20459;-69
2022/10/20 12:29:35;;;;;;;;;;;19.40;99.90;;;;;;5094008;28;19908;-70
2022/10/20 12:32:20;;;;;;;;;;;19.40;99.90;;;;;;5093991;28;20367;-70
2022/10/20 12:34:47;;;;;;;;;;;19.40;99.90;;;;;;5093827;28;19948;-70
2022/10/20 12:37:18;;;;;;;;;;;19.40;99.90;;;;;;5093949;28;19908;-72
2022/10/20 12:39:45;;;;;;;;;;;19.50;99.90;;;;;;5094030;28;20002;-70
2022/10/20 12:42:31;;;;;;;;;;;19.40;99.90;;;;;;5093751;28;19912;-70
2022/10/20 12:45:03;;;;;;;;;;;19.50;99.90;;;;;;5093781;28;19908;-70
2022/10/20 12:47:31;;;;;;;;;;;19.40;99.90;;;;;;5093593;28;19908;-69
2022/10/20 12:50:00;;;;;;;;;;;19.50;99.90;;;;;;5093387;28;19924;-72
2022/10/20 12:52:29;;;;;;;;;;;19.60;99.90;;;;;;5093595;28;20422;-70
2022/10/20 12:55:07;;;;;;;;;;;19.50;99.90;;;;;;5093664;28;20387;-69
2022/10/20 12:57:40;;;;;;;;;;;19.50;99.90;;;;;;5093714;28;19912;-69
2022/10/20 13:00:26;;;;;;;;;;;19.50;99.90;;;;;;5093516;28;19915;-69
2022/10/20 13:02:57;;;;;;;;;;;19.60;99.90;;;;;;5093430;28;20383;-70
2022/10/20 13:05:24;;;;;;;;;;;19.60;99.90;;;;;;5093159;28;19978;-69
2022/10/20 13:07:55;;;;;;;;;;;19.60;99.90;;;;;;5092013;28;20017;-69
2022/10/20 13:10:30;;;;;;;;;;;19.60;99.90;;;;;;5093094;28;19919;-70
2022/10/20 13:13:03;;;;;;;;;;;19.60;99.90;;;;;;5093200;28;20290;-70
2022/10/20 13:15:35;;;;;;;;;;;19.60;99.90;;;;;;5093458;28;19915;-69
2022/10/20 13:18:05;;;;;;;;;;;19.50;99.90;;;;;;5074770;28;20258;-70
2022/10/20 13:20:35;;;;;;;;;;;19.60;99.90;;;;;;5093229;28;19944;-70
2022/10/20 13:23:02;;;;;;;;;;;19.60;99.90;;;;;;5092961;28;20383;-69
2022/10/20 13:25:47;;;;;;;;;;;19.60;99.90;;;;;;5093032;28;19908;-70
2022/10/20 13:28:13;;;;;;;;;;;19.60;99.90;;;;;;5092636;28;19908;-69
2022/10/20 13:30:52;;;;;;;;;;;19.50;99.90;;;;;;5092705;28;20448;-69
2022/10/20 13:33:25;;;;;;;;;;;19.60;99.90;;;;;;5093119;28;19991;-70
2022/10/20 13:36:14;;;;;;;;;;;19.50;99.90;;;;;;5092920;28;19908;-70
2022/10/20 13:38:49;;;;;;;;;;;19.50;99.90;;;;;;5081996;28;19908;-70
2022/10/20 13:41:30;;;;;;;;;;;19.50;99.90;;;;;;5093107;28;19953;-69
2022/10/20 13:44:12;;;;;;;;;;;19.50;99.90;;;;;;5092665;28;19923;-69
2022/10/20 13:46:41;;;;;;;;;;;19.50;99.90;;;;;;5092577;28;20518;-72
2022/10/20 13:49:08;;;;;;;;;;;19.40;99.90;;;;;;5091988;28;20003;-70
2022/10/20 13:51:43;;;;;;;;;;;19.40;99.90;;;;;;5091605;28;19927;-70
2022/10/20 13:54:17;;;;;;;;;;;19.40;99.90;;;;;;5092570;28;19953;-69
2022/10/20 13:56:46;;;;;;;;;;;19.50;99.90;;;;;;5092716;28;19909;-69
2022/10/20 13:59:21;;;;;;;;;;;19.40;99.90;;;;;;5092843;28;20292;-69
2022/10/20 14:01:49;;;;;;;;;;;19.50;99.90;;;;;;5092361;28;20325;-71
2022/10/20 14:04:23;;;;;;;;;;;19.50;99.90;;;;;;5092734;28;19916;-71
2022/10/20 14:06:50;;;;;;;;;;;19.50;99.90;;;;;;5092343;28;20394;-71
2022/10/20 14:09:22;;;;;;;;;;;19.50;99.90;;;;;;5092537;28;19914;-69
2022/10/20 14:12:03;;;;;;;;;;;19.50;99.90;;;;;;5092585;28;20415;-72
2022/10/20 14:14:30;;;;;;;;;;;19.50;99.90;;;;;;5092408;28;19912;-69
2022/10/20 14:16:58;;;;;;;;;;;19.50;99.90;;;;;;5092705;28;20390;-70
2022/10/20 14:19:26;;;;;;;;;;;19.50;99.90;;;;;;5093876;28;19929;-69
2022/10/20 14:21:57;;;;;;;;;;;19.60;99.90;;;;;;5078311;28;19915;-72
2022/10/20 14:24:34;;;;;;;;;;;19.50;99.90;;;;;;5096499;28;19912;-71
2022/10/20 14:27:02;;;;;;;;;;;19.60;99.90;;;;;;5096721;28;19918;-72
2022/10/20 14:29:31;;;;;;;;;;;19.60;99.90;;;;;;5097068;28;20002;-69
2022/10/20 14:31:58;;;;;;;;;;;19.50;99.90;;;;;;5096383;28;19908;-71
2022/10/20 14:34:28;;;;;;;;;;;19.50;99.90;;;;;;5096556;28;20314;-69